sensor_id;sensor_type;location;lat;lon;timestamp;P1;durP1;ratioP1;P2;durP2;ratioP2
61638;SDS011;47544;52.484;4.658;2023-12-20T00:00:01;6.28;;;1.27;;
61638;SDS011;47544;52.484;4.658;2023-12-20T00:00:12;8.57;;;1.38;;
61638;SDS011;47544;52.484;4.658;2023-12-20T00:00:23;8.50;;;1.30;;
61638;SDS011;47544;52.484;4.658;2023-12-20T00:00:34;9.70;;;1.50;;
61638;SDS011;47544;52.484;4.658;2023-12-20T00:00:45;11.00;;;1.45;;
61638;SDS011;47544;52.484;4.658;2023-12-20T00:00:57;13.63;;;1.73;;
61638;SDS011;47544;52.484;4.658;2023-12-20T00:01:08;13.38;;;2.03;;
61638;SDS011;47544;52.484;4.658;2023-12-20T00:01:19;12.15;;;2.00;;
61638;SDS011;47544;52.484;4.658;2023-12-20T00:01:30;9.25;;;1.52;;
61638;SDS011;47544;52.484;4.658;2023-12-20T00:01:41;7.43;;;1.10;;
61638;SDS011;47544;52.484;4.658;2023-12-20T00:01:52;8.82;;;1.27;;
61638;SDS011;47544;52.484;4.658;2023-12-20T00:02:03;8.90;;;1.15;;
61638;SDS011;47544;52.484;4.658;2023-12-20T00:02:14;8.50;;;1.23;;
61638;SDS011;47544;52.484;4.658;2023-12-20T00:02:25;8.63;;;1.60;;
61638;SDS011;47544;52.484;4.658;2023-12-20T00:02:36;8.20;;;1.70;;
61638;SDS011;47544;52.484;4.658;2023-12-20T00:02:48;10.40;;;1.67;;
61638;SDS011;47544;52.484;4.658;2023-12-20T00:02:59;10.48;;;1.55;;
61638;SDS011;47544;52.484;4.658;2023-12-20T00:03:09;10.15;;;1.67;;
61638;SDS011;47544;52.484;4.658;2023-12-20T00:03:20;8.77;;;1.52;;
61638;SDS011;47544;52.484;4.658;2023-12-20T00:03:31;9.07;;;1.40;;
61638;SDS011;47544;52.484;4.658;2023-12-20T00:03:42;9.02;;;1.35;;
61638;SDS011;47544;52.484;4.658;2023-12-20T00:03:53;7.97;;;1.30;;
61638;SDS011;47544;52.484;4.658;2023-12-20T00:04:04;9.07;;;1.35;;
61638;SDS011;47544;52.484;4.658;2023-12-20T00:04:15;9.93;;;1.50;;
61638;SDS011;47544;52.484;4.658;2023-12-20T00:04:26;12.00;;;1.65;;
61638;SDS011;47544;52.484;4.658;2023-12-20T00:04:38;8.55;;;1.52;;
61638;SDS011;47544;52.484;4.658;2023-12-20T00:04:50;7.45;;;1.50;;
61638;SDS011;47544;52.484;4.658;2023-12-20T00:05:01;7.82;;;1.50;;
61638;SDS011;47544;52.484;4.658;2023-12-20T00:05:12;9.45;;;1.30;;
61638;SDS011;47544;52.484;4.658;2023-12-20T00:05:23;10.05;;;1.50;;
61638;SDS011;47544;52.484;4.658;2023-12-20T00:05:34;10.15;;;1.50;;
61638;SDS011;47544;52.484;4.658;2023-12-20T00:05:45;9.68;;;1.40;;
61638;SDS011;47544;52.484;4.658;2023-12-20T00:05:56;9.48;;;1.42;;
61638;SDS011;47544;52.484;4.658;2023-12-20T00:06:07;10.57;;;1.42;;
61638;SDS011;47544;52.484;4.658;2023-12-20T00:06:18;10.98;;;1.40;;
61638;SDS011;47544;52.484;4.658;2023-12-20T00:06:29;12.48;;;1.48;;
61638;SDS011;47544;52.484;4.658;2023-12-20T00:06:41;12.02;;;1.75;;
61638;SDS011;47544;52.484;4.658;2023-12-20T00:06:52;10.75;;;1.88;;
61638;SDS011;47544;52.484;4.658;2023-12-20T00:07:03;9.23;;;1.63;;
61638;SDS011;47544;52.484;4.658;2023-12-20T00:07:14;7.45;;;1.30;;
61638;SDS011;47544;52.484;4.658;2023-12-20T00:07:25;7.95;;;1.33;;
61638;SDS011;47544;52.484;4.658;2023-12-20T00:07:36;8.45;;;1.48;;
61638;SDS011;47544;52.484;4.658;2023-12-20T00:07:47;10.27;;;1.30;;
61638;SDS011;47544;52.484;4.658;2023-12-20T00:07:58;11.27;;;1.52;;
61638;SDS011;47544;52.484;4.658;2023-12-20T00:08:09;13.38;;;2.47;;
61638;SDS011;47544;52.484;4.658;2023-12-20T00:08:20;13.43;;;2.70;;
61638;SDS011;47544;52.484;4.658;2023-12-20T00:08:31;13.10;;;1.95;;
61638;SDS011;47544;52.484;4.658;2023-12-20T00:08:41;12.15;;;1.77;;
61638;SDS011;47544;52.484;4.658;2023-12-20T00:08:52;10.50;;;1.50;;
61638;SDS011;47544;52.484;4.658;2023-12-20T00:09:04;10.40;;;1.42;;
61638;SDS011;47544;52.484;4.658;2023-12-20T00:09:15;11.88;;;1.60;;
61638;SDS011;47544;52.484;4.658;2023-12-20T00:09:27;11.57;;;1.70;;
61638;SDS011;47544;52.484;4.658;2023-12-20T00:09:38;11.70;;;1.50;;
61638;SDS011;47544;52.484;4.658;2023-12-20T00:09:48;8.75;;;1.30;;
61638;SDS011;47544;52.484;4.658;2023-12-20T00:09:59;6.88;;;1.20;;
61638;SDS011;47544;52.484;4.658;2023-12-20T00:10:10;8.97;;;1.47;;
61638;SDS011;47544;52.484;4.658;2023-12-20T00:10:23;9.60;;;1.50;;
61638;SDS011;47544;52.484;4.658;2023-12-20T00:10:34;9.77;;;1.48;;
61638;SDS011;47544;52.484;4.658;2023-12-20T00:10:45;8.52;;;1.23;;
61638;SDS011;47544;52.484;4.658;2023-12-20T00:10:56;9.27;;;1.40;;
61638;SDS011;47544;52.484;4.658;2023-12-20T00:11:06;9.27;;;1.63;;
61638;SDS011;47544;52.484;4.658;2023-12-20T00:11:18;11.32;;;2.00;;
61638;SDS011;47544;52.484;4.658;2023-12-20T00:11:29;12.40;;;2.17;;
61638;SDS011;47544;52.484;4.658;2023-12-20T00:11:40;12.45;;;2.28;;
61638;SDS011;47544;52.484;4.658;2023-12-20T00:11:52;11.52;;;2.05;;
61638;SDS011;47544;52.484;4.658;2023-12-20T00:12:04;12.70;;;1.65;;
61638;SDS011;47544;52.484;4.658;2023-12-20T00:12:15;11.90;;;1.45;;
61638;SDS011;47544;52.484;4.658;2023-12-20T00:12:25;12.27;;;1.80;;
61638;SDS011;47544;52.484;4.658;2023-12-20T00:12:36;12.23;;;1.85;;
61638;SDS011;47544;52.484;4.658;2023-12-20T00:12:47;12.23;;;1.90;;
61638;SDS011;47544;52.484;4.658;2023-12-20T00:13:00;9.33;;;1.33;;
61638;SDS011;47544;52.484;4.658;2023-12-20T00:13:11;9.02;;;1.48;;
61638;SDS011;47544;52.484;4.658;2023-12-20T00:13:23;10.77;;;1.70;;
61638;SDS011;47544;52.484;4.658;2023-12-20T00:13:33;9.07;;;1.65;;
61638;SDS011;47544;52.484;4.658;2023-12-20T00:13:44;7.70;;;1.25;;
61638;SDS011;47544;52.484;4.658;2023-12-20T00:13:55;8.10;;;1.25;;
61638;SDS011;47544;52.484;4.658;2023-12-20T00:14:06;10.03;;;1.53;;
61638;SDS011;47544;52.484;4.658;2023-12-20T00:14:17;13.23;;;1.88;;
61638;SDS011;47544;52.484;4.658;2023-12-20T00:14:28;12.77;;;2.03;;
61638;SDS011;47544;52.484;4.658;2023-12-20T00:14:39;11.68;;;1.90;;
61638;SDS011;47544;52.484;4.658;2023-12-20T00:14:50;12.13;;;1.75;;
61638;SDS011;47544;52.484;4.658;2023-12-20T00:15:00;12.65;;;1.58;;
61638;SDS011;47544;52.484;4.658;2023-12-20T00:15:11;12.57;;;1.55;;
61638;SDS011;47544;52.484;4.658;2023-12-20T00:15:23;10.57;;;1.40;;
61638;SDS011;47544;52.484;4.658;2023-12-20T00:15:34;11.43;;;1.52;;
61638;SDS011;47544;52.484;4.658;2023-12-20T00:15:45;11.90;;;1.30;;
61638;SDS011;47544;52.484;4.658;2023-12-20T00:15:56;13.18;;;1.50;;
61638;SDS011;47544;52.484;4.658;2023-12-20T00:16:07;14.37;;;1.80;;
61638;SDS011;47544;52.484;4.658;2023-12-20T00:16:18;14.30;;;2.28;;
61638;SDS011;47544;52.484;4.658;2023-12-20T00:16:29;15.70;;;2.35;;
61638;SDS011;47544;52.484;4.658;2023-12-20T00:16:40;17.38;;;2.50;;
61638;SDS011;47544;52.484;4.658;2023-12-20T00:16:50;15.40;;;1.98;;
61638;SDS011;47544;52.484;4.658;2023-12-20T00:17:01;13.05;;;2.10;;
61638;SDS011;47544;52.484;4.658;2023-12-20T00:17:13;11.32;;;2.00;;
61638;SDS011;47544;52.484;4.658;2023-12-20T00:17:24;10.55;;;2.08;;
61638;SDS011;47544;52.484;4.658;2023-12-20T00:17:35;11.25;;;2.00;;
61638;SDS011;47544;52.484;4.658;2023-12-20T00:17:46;11.50;;;2.00;;
61638;SDS011;47544;52.484;4.658;2023-12-20T00:17:57;11.25;;;1.83;;
61638;SDS011;47544;52.484;4.658;2023-12-20T00:18:08;9.35;;;1.63;;
61638;SDS011;47544;52.484;4.658;2023-12-20T00:18:19;9.85;;;1.48;;
61638;SDS011;47544;52.484;4.658;2023-12-20T00:18:30;10.70;;;1.50;;
61638;SDS011;47544;52.484;4.658;2023-12-20T00:18:41;10.40;;;1.60;;
61638;SDS011;47544;52.484;4.658;2023-12-20T00:18:52;12.07;;;1.83;;
61638;SDS011;47544;52.484;4.658;2023-12-20T00:19:02;9.90;;;1.63;;
61638;SDS011;47544;52.484;4.658;2023-12-20T00:19:13;8.68;;;1.50;;
61638;SDS011;47544;52.484;4.658;2023-12-20T00:19:24;11.00;;;1.60;;
61638;SDS011;47544;52.484;4.658;2023-12-20T00:19:36;11.52;;;1.45;;
61638;SDS011;47544;52.484;4.658;2023-12-20T00:19:48;13.60;;;1.55;;
61638;SDS011;47544;52.484;4.658;2023-12-20T00:19:59;11.65;;;1.30;;
61638;SDS011;47544;52.484;4.658;2023-12-20T00:20:10;10.52;;;1.33;;
61638;SDS011;47544;52.484;4.658;2023-12-20T00:20:21;8.68;;;1.20;;
61638;SDS011;47544;52.484;4.658;2023-12-20T00:20:32;8.13;;;1.30;;
61638;SDS011;47544;52.484;4.658;2023-12-20T00:20:43;10.13;;;1.40;;
61638;SDS011;47544;52.484;4.658;2023-12-20T00:20:54;12.20;;;1.75;;
61638;SDS011;47544;52.484;4.658;2023-12-20T00:21:05;11.45;;;1.80;;
61638;SDS011;47544;52.484;4.658;2023-12-20T00:21:16;9.02;;;1.55;;
61638;SDS011;47544;52.484;4.658;2023-12-20T00:21:28;10.35;;;1.67;;
61638;SDS011;47544;52.484;4.658;2023-12-20T00:21:39;11.68;;;2.03;;
61638;SDS011;47544;52.484;4.658;2023-12-20T00:21:50;11.35;;;1.90;;
61638;SDS011;47544;52.484;4.658;2023-12-20T00:22:01;9.63;;;1.67;;
61638;SDS011;47544;52.484;4.658;2023-12-20T00:22:12;9.15;;;1.83;;
61638;SDS011;47544;52.484;4.658;2023-12-20T00:22:23;9.20;;;1.77;;
61638;SDS011;47544;52.484;4.658;2023-12-20T00:22:34;8.05;;;1.65;;
61638;SDS011;47544;52.484;4.658;2023-12-20T00:22:45;6.70;;;1.40;;
61638;SDS011;47544;52.484;4.658;2023-12-20T00:22:56;6.80;;;1.67;;
61638;SDS011;47544;52.484;4.658;2023-12-20T00:23:07;7.40;;;1.80;;
61638;SDS011;47544;52.484;4.658;2023-12-20T00:23:19;7.57;;;1.70;;
61638;SDS011;47544;52.484;4.658;2023-12-20T00:23:30;8.02;;;1.65;;
61638;SDS011;47544;52.484;4.658;2023-12-20T00:23:41;9.23;;;1.63;;
61638;SDS011;47544;52.484;4.658;2023-12-20T00:23:52;10.45;;;1.77;;
61638;SDS011;47544;52.484;4.658;2023-12-20T00:24:03;11.10;;;1.77;;
61638;SDS011;47544;52.484;4.658;2023-12-20T00:24:14;11.85;;;1.92;;
61638;SDS011;47544;52.484;4.658;2023-12-20T00:24:25;11.10;;;1.70;;
61638;SDS011;47544;52.484;4.658;2023-12-20T00:24:36;7.35;;;1.35;;
61638;SDS011;47544;52.484;4.658;2023-12-20T00:24:47;5.53;;;1.30;;
61638;SDS011;47544;52.484;4.658;2023-12-20T00:24:59;8.70;;;1.77;;
61638;SDS011;47544;52.484;4.658;2023-12-20T00:25:11;11.68;;;2.17;;
61638;SDS011;47544;52.484;4.658;2023-12-20T00:25:23;12.93;;;2.25;;
61638;SDS011;47544;52.484;4.658;2023-12-20T00:25:34;13.98;;;2.17;;
61638;SDS011;47544;52.484;4.658;2023-12-20T00:25:45;15.10;;;2.10;;
61638;SDS011;47544;52.484;4.658;2023-12-20T00:25:56;13.05;;;1.73;;
61638;SDS011;47544;52.484;4.658;2023-12-20T00:26:07;11.00;;;1.58;;
61638;SDS011;47544;52.484;4.658;2023-12-20T00:26:19;11.02;;;1.48;;
61638;SDS011;47544;52.484;4.658;2023-12-20T00:26:30;11.57;;;1.50;;
61638;SDS011;47544;52.484;4.658;2023-12-20T00:26:41;10.18;;;1.50;;
61638;SDS011;47544;52.484;4.658;2023-12-20T00:26:52;9.70;;;2.08;;
61638;SDS011;47544;52.484;4.658;2023-12-20T00:27:03;8.95;;;2.40;;
61638;SDS011;47544;52.484;4.658;2023-12-20T00:27:13;9.57;;;2.42;;
61638;SDS011;47544;52.484;4.658;2023-12-20T00:27:25;9.38;;;1.77;;
61638;SDS011;47544;52.484;4.658;2023-12-20T00:27:36;10.20;;;1.88;;
61638;SDS011;47544;52.484;4.658;2023-12-20T00:27:47;9.52;;;1.90;;
61638;SDS011;47544;52.484;4.658;2023-12-20T00:27:58;10.63;;;2.05;;
61638;SDS011;47544;52.484;4.658;2023-12-20T00:28:09;10.35;;;1.67;;
61638;SDS011;47544;52.484;4.658;2023-12-20T00:28:20;11.30;;;1.60;;
61638;SDS011;47544;52.484;4.658;2023-12-20T00:28:31;9.43;;;1.50;;
61638;SDS011;47544;52.484;4.658;2023-12-20T00:28:42;10.25;;;1.77;;
61638;SDS011;47544;52.484;4.658;2023-12-20T00:28:53;11.18;;;1.63;;
61638;SDS011;47544;52.484;4.658;2023-12-20T00:29:04;10.32;;;1.67;;
61638;SDS011;47544;52.484;4.658;2023-12-20T00:29:15;8.27;;;1.40;;
61638;SDS011;47544;52.484;4.658;2023-12-20T00:29:26;6.82;;;1.40;;
61638;SDS011;47544;52.484;4.658;2023-12-20T00:29:37;7.20;;;1.60;;
61638;SDS011;47544;52.484;4.658;2023-12-20T00:29:48;6.85;;;1.50;;
61638;SDS011;47544;52.484;4.658;2023-12-20T00:30:00;7.18;;;1.33;;
61638;SDS011;47544;52.484;4.658;2023-12-20T00:30:11;8.20;;;1.37;;
61638;SDS011;47544;52.484;4.658;2023-12-20T00:30:22;7.97;;;1.33;;
61638;SDS011;47544;52.484;4.658;2023-12-20T00:30:33;7.97;;;1.40;;
61638;SDS011;47544;52.484;4.658;2023-12-20T00:30:44;9.57;;;1.63;;
61638;SDS011;47544;52.484;4.658;2023-12-20T00:30:55;10.13;;;1.70;;
61638;SDS011;47544;52.484;4.658;2023-12-20T00:31:06;13.65;;;2.00;;
61638;SDS011;47544;52.484;4.658;2023-12-20T00:31:20;12.70;;;1.90;;
61638;SDS011;47544;52.484;4.658;2023-12-20T00:31:31;14.30;;;2.10;;
61638;SDS011;47544;52.484;4.658;2023-12-20T00:31:43;13.35;;;2.10;;
61638;SDS011;47544;52.484;4.658;2023-12-20T00:31:54;11.75;;;2.15;;
61638;SDS011;47544;52.484;4.658;2023-12-20T00:32:05;11.40;;;2.10;;
61638;SDS011;47544;52.484;4.658;2023-12-20T00:32:17;11.15;;;1.92;;
61638;SDS011;47544;52.484;4.658;2023-12-20T00:32:28;11.02;;;1.90;;
61638;SDS011;47544;52.484;4.658;2023-12-20T00:32:39;11.27;;;1.75;;
61638;SDS011;47544;52.484;4.658;2023-12-20T00:32:56;11.40;;;1.90;;
61638;SDS011;47544;52.484;4.658;2023-12-20T00:33:07;9.93;;;1.85;;
61638;SDS011;47544;52.484;4.658;2023-12-20T00:33:19;9.70;;;1.77;;
61638;SDS011;47544;52.484;4.658;2023-12-20T00:33:30;9.82;;;1.75;;
61638;SDS011;47544;52.484;4.658;2023-12-20T00:33:41;9.48;;;1.80;;
61638;SDS011;47544;52.484;4.658;2023-12-20T00:33:54;12.65;;;2.03;;
61638;SDS011;47544;52.484;4.658;2023-12-20T00:34:05;12.43;;;1.95;;
61638;SDS011;47544;52.484;4.658;2023-12-20T00:34:16;10.00;;;1.58;;
61638;SDS011;47544;52.484;4.658;2023-12-20T00:34:27;8.18;;;1.35;;
61638;SDS011;47544;52.484;4.658;2023-12-20T00:34:37;8.65;;;1.50;;
61638;SDS011;47544;52.484;4.658;2023-12-20T00:34:50;9.23;;;1.98;;
61638;SDS011;47544;52.484;4.658;2023-12-20T00:35:01;10.35;;;1.83;;
61638;SDS011;47544;52.484;4.658;2023-12-20T00:35:13;10.50;;;1.83;;
61638;SDS011;47544;52.484;4.658;2023-12-20T00:35:23;12.98;;;1.75;;
61638;SDS011;47544;52.484;4.658;2023-12-20T00:35:34;12.98;;;2.00;;
61638;SDS011;47544;52.484;4.658;2023-12-20T00:35:45;13.07;;;2.15;;
61638;SDS011;47544;52.484;4.658;2023-12-20T00:35:57;11.60;;;1.92;;
61638;SDS011;47544;52.484;4.658;2023-12-20T00:36:08;12.05;;;1.90;;
61638;SDS011;47544;52.484;4.658;2023-12-20T00:36:19;10.00;;;1.73;;
61638;SDS011;47544;52.484;4.658;2023-12-20T00:36:30;8.23;;;1.80;;
61638;SDS011;47544;52.484;4.658;2023-12-20T00:36:41;7.65;;;1.55;;
61638;SDS011;47544;52.484;4.658;2023-12-20T00:36:52;9.40;;;1.67;;
61638;SDS011;47544;52.484;4.658;2023-12-20T00:37:03;9.52;;;1.40;;
61638;SDS011;47544;52.484;4.658;2023-12-20T00:37:14;10.05;;;1.67;;
61638;SDS011;47544;52.484;4.658;2023-12-20T00:37:25;11.48;;;2.03;;
61638;SDS011;47544;52.484;4.658;2023-12-20T00:37:36;12.55;;;2.00;;
61638;SDS011;47544;52.484;4.658;2023-12-20T00:37:48;13.07;;;1.98;;
61638;SDS011;47544;52.484;4.658;2023-12-20T00:38:00;12.48;;;1.75;;
61638;SDS011;47544;52.484;4.658;2023-12-20T00:38:11;12.07;;;1.98;;
61638;SDS011;47544;52.484;4.658;2023-12-20T00:38:22;11.85;;;1.65;;
61638;SDS011;47544;52.484;4.658;2023-12-20T00:38:33;9.23;;;1.38;;
61638;SDS011;47544;52.484;4.658;2023-12-20T00:38:44;10.65;;;1.80;;
61638;SDS011;47544;52.484;4.658;2023-12-20T00:38:58;12.30;;;2.05;;
61638;SDS011;47544;52.484;4.658;2023-12-20T00:39:09;12.77;;;1.98;;
61638;SDS011;47544;52.484;4.658;2023-12-20T00:39:19;10.50;;;1.40;;
61638;SDS011;47544;52.484;4.658;2023-12-20T00:39:31;11.35;;;1.52;;
61638;SDS011;47544;52.484;4.658;2023-12-20T00:39:45;10.23;;;1.52;;
61638;SDS011;47544;52.484;4.658;2023-12-20T00:39:56;10.85;;;1.60;;
61638;SDS011;47544;52.484;4.658;2023-12-20T00:40:07;11.68;;;1.77;;
61638;SDS011;47544;52.484;4.658;2023-12-20T00:40:19;13.88;;;2.05;;
61638;SDS011;47544;52.484;4.658;2023-12-20T00:40:29;14.07;;;2.00;;
61638;SDS011;47544;52.484;4.658;2023-12-20T00:40:40;14.50;;;1.98;;
61638;SDS011;47544;52.484;4.658;2023-12-20T00:40:51;12.43;;;1.83;;
61638;SDS011;47544;52.484;4.658;2023-12-20T00:41:02;11.27;;;1.80;;
61638;SDS011;47544;52.484;4.658;2023-12-20T00:41:13;10.40;;;1.80;;
61638;SDS011;47544;52.484;4.658;2023-12-20T00:41:25;10.07;;;1.58;;
61638;SDS011;47544;52.484;4.658;2023-12-20T00:41:36;8.75;;;1.55;;
61638;SDS011;47544;52.484;4.658;2023-12-20T00:41:47;8.98;;;1.55;;
61638;SDS011;47544;52.484;4.658;2023-12-20T00:41:58;11.05;;;1.75;;
61638;SDS011;47544;52.484;4.658;2023-12-20T00:42:09;12.43;;;2.00;;
61638;SDS011;47544;52.484;4.658;2023-12-20T00:42:20;13.98;;;2.17;;
61638;SDS011;47544;52.484;4.658;2023-12-20T00:42:31;12.88;;;2.08;;
61638;SDS011;47544;52.484;4.658;2023-12-20T00:42:42;10.63;;;1.75;;
61638;SDS011;47544;52.484;4.658;2023-12-20T00:42:53;9.07;;;1.50;;
61638;SDS011;47544;52.484;4.658;2023-12-20T00:43:04;8.00;;;1.40;;
61638;SDS011;47544;52.484;4.658;2023-12-20T00:43:14;7.88;;;1.40;;
61638;SDS011;47544;52.484;4.658;2023-12-20T00:43:29;8.73;;;1.50;;
61638;SDS011;47544;52.484;4.658;2023-12-20T00:43:40;10.43;;;1.80;;
61638;SDS011;47544;52.484;4.658;2023-12-20T00:43:51;10.48;;;1.70;;
61638;SDS011;47544;52.484;4.658;2023-12-20T00:44:02;8.70;;;1.67;;
61638;SDS011;47544;52.484;4.658;2023-12-20T00:44:13;8.88;;;1.63;;
61638;SDS011;47544;52.484;4.658;2023-12-20T00:44:24;10.00;;;2.13;;
61638;SDS011;47544;52.484;4.658;2023-12-20T00:44:35;13.15;;;2.08;;
61638;SDS011;47544;52.484;4.658;2023-12-20T00:44:46;12.93;;;2.00;;
61638;SDS011;47544;52.484;4.658;2023-12-20T00:44:57;7.60;;;1.23;;
61638;SDS011;47544;52.484;4.658;2023-12-20T00:45:08;7.65;;;1.27;;
61638;SDS011;47544;52.484;4.658;2023-12-20T00:45:19;7.95;;;1.27;;
61638;SDS011;47544;52.484;4.658;2023-12-20T00:45:31;8.88;;;1.48;;
61638;SDS011;47544;52.484;4.658;2023-12-20T00:45:42;7.75;;;1.65;;
61638;SDS011;47544;52.484;4.658;2023-12-20T00:45:53;8.57;;;2.00;;
61638;SDS011;47544;52.484;4.658;2023-12-20T00:46:04;8.75;;;2.05;;
61638;SDS011;47544;52.484;4.658;2023-12-20T00:46:14;9.93;;;2.05;;
61638;SDS011;47544;52.484;4.658;2023-12-20T00:46:25;9.30;;;1.90;;
61638;SDS011;47544;52.484;4.658;2023-12-20T00:46:36;10.18;;;2.00;;
61638;SDS011;47544;52.484;4.658;2023-12-20T00:46:49;11.25;;;1.95;;
61638;SDS011;47544;52.484;4.658;2023-12-20T00:47:00;10.38;;;1.65;;
61638;SDS011;47544;52.484;4.658;2023-12-20T00:47:11;7.28;;;1.25;;
61638;SDS011;47544;52.484;4.658;2023-12-20T00:47:23;6.03;;;1.00;;
61638;SDS011;47544;52.484;4.658;2023-12-20T00:47:34;6.47;;;1.30;;
61638;SDS011;47544;52.484;4.658;2023-12-20T00:47:45;9.60;;;1.58;;
61638;SDS011;47544;52.484;4.658;2023-12-20T00:47:56;9.65;;;1.85;;
61638;SDS011;47544;52.484;4.658;2023-12-20T00:48:07;10.05;;;2.00;;
61638;SDS011;47544;52.484;4.658;2023-12-20T00:48:18;10.43;;;1.92;;
61638;SDS011;47544;52.484;4.658;2023-12-20T00:48:29;11.07;;;2.00;;
61638;SDS011;47544;52.484;4.658;2023-12-20T00:48:40;10.20;;;1.80;;
61638;SDS011;47544;52.484;4.658;2023-12-20T00:48:52;9.68;;;1.73;;
61638;SDS011;47544;52.484;4.658;2023-12-20T00:49:04;11.75;;;1.75;;
61638;SDS011;47544;52.484;4.658;2023-12-20T00:49:15;11.75;;;1.98;;
61638;SDS011;47544;52.484;4.658;2023-12-20T00:49:26;13.05;;;2.70;;
61638;SDS011;47544;52.484;4.658;2023-12-20T00:49:37;14.73;;;3.00;;
61638;SDS011;47544;52.484;4.658;2023-12-20T00:49:49;15.00;;;3.00;;
61638;SDS011;47544;52.484;4.658;2023-12-20T00:50:00;12.85;;;2.08;;
61638;SDS011;47544;52.484;4.658;2023-12-20T00:50:11;10.18;;;1.60;;
61638;SDS011;47544;52.484;4.658;2023-12-20T00:50:22;8.70;;;1.40;;
61638;SDS011;47544;52.484;4.658;2023-12-20T00:50:33;9.60;;;1.70;;
61638;SDS011;47544;52.484;4.658;2023-12-20T00:50:47;9.48;;;1.83;;
61638;SDS011;47544;52.484;4.658;2023-12-20T00:50:58;10.95;;;1.98;;
61638;SDS011;47544;52.484;4.658;2023-12-20T00:51:09;10.38;;;1.80;;
61638;SDS011;47544;52.484;4.658;2023-12-20T00:51:21;12.75;;;1.80;;
61638;SDS011;47544;52.484;4.658;2023-12-20T00:51:32;12.90;;;1.70;;
61638;SDS011;47544;52.484;4.658;2023-12-20T00:51:44;10.30;;;1.65;;
61638;SDS011;47544;52.484;4.658;2023-12-20T00:51:54;10.35;;;1.60;;
61638;SDS011;47544;52.484;4.658;2023-12-20T00:52:05;10.90;;;1.60;;
61638;SDS011;47544;52.484;4.658;2023-12-20T00:52:16;11.43;;;1.83;;
61638;SDS011;47544;52.484;4.658;2023-12-20T00:52:28;13.95;;;2.20;;
61638;SDS011;47544;52.484;4.658;2023-12-20T00:52:39;12.95;;;2.00;;
61638;SDS011;47544;52.484;4.658;2023-12-20T00:52:50;10.60;;;1.63;;
61638;SDS011;47544;52.484;4.658;2023-12-20T00:53:01;7.43;;;1.50;;
61638;SDS011;47544;52.484;4.658;2023-12-20T00:53:12;7.97;;;1.83;;
61638;SDS011;47544;52.484;4.658;2023-12-20T00:53:23;8.50;;;2.13;;
61638;SDS011;47544;52.484;4.658;2023-12-20T00:53:34;9.88;;;2.35;;
61638;SDS011;47544;52.484;4.658;2023-12-20T00:53:45;11.40;;;2.33;;
61638;SDS011;47544;52.484;4.658;2023-12-20T00:53:59;11.48;;;2.00;;
61638;SDS011;47544;52.484;4.658;2023-12-20T00:54:11;8.65;;;1.63;;
61638;SDS011;47544;52.484;4.658;2023-12-20T00:54:22;11.32;;;1.92;;
61638;SDS011;47544;52.484;4.658;2023-12-20T00:54:33;12.20;;;2.28;;
61638;SDS011;47544;52.484;4.658;2023-12-20T00:54:45;14.20;;;2.50;;
61638;SDS011;47544;52.484;4.658;2023-12-20T00:54:56;14.10;;;2.58;;
61638;SDS011;47544;52.484;4.658;2023-12-20T00:55:07;14.82;;;2.42;;
61638;SDS011;47544;52.484;4.658;2023-12-20T00:55:18;15.50;;;2.47;;
61638;SDS011;47544;52.484;4.658;2023-12-20T00:55:29;14.30;;;2.30;;
61638;SDS011;47544;52.484;4.658;2023-12-20T00:55:40;10.65;;;2.30;;
61638;SDS011;47544;52.484;4.658;2023-12-20T00:55:51;9.73;;;2.20;;
61638;SDS011;47544;52.484;4.658;2023-12-20T00:56:03;10.20;;;2.33;;
61638;SDS011;47544;52.484;4.658;2023-12-20T00:56:14;13.20;;;2.28;;
61638;SDS011;47544;52.484;4.658;2023-12-20T00:56:25;12.15;;;2.10;;
61638;SDS011;47544;52.484;4.658;2023-12-20T00:56:36;11.67;;;1.90;;
61638;SDS011;47544;52.484;4.658;2023-12-20T00:56:47;10.25;;;1.90;;
61638;SDS011;47544;52.484;4.658;2023-12-20T00:56:58;9.70;;;1.90;;
61638;SDS011;47544;52.484;4.658;2023-12-20T00:57:09;9.25;;;2.00;;
61638;SDS011;47544;52.484;4.658;2023-12-20T00:57:20;8.57;;;1.75;;
61638;SDS011;47544;52.484;4.658;2023-12-20T00:57:30;9.05;;;1.55;;
61638;SDS011;47544;52.484;4.658;2023-12-20T00:57:41;7.38;;;1.40;;
61638;SDS011;47544;52.484;4.658;2023-12-20T00:57:53;7.25;;;1.30;;
61638;SDS011;47544;52.484;4.658;2023-12-20T00:58:04;9.98;;;1.60;;
61638;SDS011;47544;52.484;4.658;2023-12-20T00:58:15;11.13;;;2.03;;
61638;SDS011;47544;52.484;4.658;2023-12-20T00:58:26;11.70;;;2.17;;
61638;SDS011;47544;52.484;4.658;2023-12-20T00:58:38;8.98;;;1.90;;
61638;SDS011;47544;52.484;4.658;2023-12-20T00:58:49;7.45;;;1.75;;
61638;SDS011;47544;52.484;4.658;2023-12-20T00:59:00;7.03;;;1.77;;
61638;SDS011;47544;52.484;4.658;2023-12-20T00:59:11;8.75;;;1.83;;
61638;SDS011;47544;52.484;4.658;2023-12-20T00:59:22;13.32;;;1.95;;
61638;SDS011;47544;52.484;4.658;2023-12-20T00:59:34;14.57;;;2.20;;
61638;SDS011;47544;52.484;4.658;2023-12-20T00:59:44;16.08;;;2.40;;
61638;SDS011;47544;52.484;4.658;2023-12-20T00:59:55;12.35;;;2.13;;
61638;SDS011;47544;52.484;4.658;2023-12-20T01:00:07;12.45;;;1.85;;
61638;SDS011;47544;52.484;4.658;2023-12-20T01:00:20;11.88;;;1.60;;
61638;SDS011;47544;52.484;4.658;2023-12-20T01:00:31;10.98;;;1.55;;
61638;SDS011;47544;52.484;4.658;2023-12-20T01:00:42;10.45;;;1.70;;
61638;SDS011;47544;52.484;4.658;2023-12-20T01:00:53;8.63;;;1.90;;
61638;SDS011;47544;52.484;4.658;2023-12-20T01:01:04;7.13;;;1.90;;
61638;SDS011;47544;52.484;4.658;2023-12-20T01:01:15;7.43;;;2.10;;
61638;SDS011;47544;52.484;4.658;2023-12-20T01:01:26;7.78;;;2.10;;
61638;SDS011;47544;52.484;4.658;2023-12-20T01:01:38;8.50;;;1.88;;
61638;SDS011;47544;52.484;4.658;2023-12-20T01:01:49;8.60;;;1.77;;
61638;SDS011;47544;52.484;4.658;2023-12-20T01:02:00;9.77;;;1.87;;
61638;SDS011;47544;52.484;4.658;2023-12-20T01:02:10;10.73;;;1.97;;
61638;SDS011;47544;52.484;4.658;2023-12-20T01:02:21;11.85;;;2.15;;
61638;SDS011;47544;52.484;4.658;2023-12-20T01:02:32;10.70;;;1.80;;
61638;SDS011;47544;52.484;4.658;2023-12-20T01:02:43;11.15;;;1.80;;
61638;SDS011;47544;52.484;4.658;2023-12-20T01:02:54;11.43;;;2.15;;
61638;SDS011;47544;52.484;4.658;2023-12-20T01:03:05;10.93;;;2.20;;
61638;SDS011;47544;52.484;4.658;2023-12-20T01:03:17;10.18;;;2.22;;
61638;SDS011;47544;52.484;4.658;2023-12-20T01:03:28;9.93;;;2.08;;
61638;SDS011;47544;52.484;4.658;2023-12-20T01:03:39;10.38;;;2.22;;
61638;SDS011;47544;52.484;4.658;2023-12-20T01:03:50;12.45;;;2.45;;
61638;SDS011;47544;52.484;4.658;2023-12-20T01:04:01;14.18;;;2.67;;
61638;SDS011;47544;52.484;4.658;2023-12-20T01:04:12;11.77;;;2.30;;
61638;SDS011;47544;52.484;4.658;2023-12-20T01:04:23;9.82;;;1.92;;
61638;SDS011;47544;52.484;4.658;2023-12-20T01:04:34;11.30;;;1.63;;
61638;SDS011;47544;52.484;4.658;2023-12-20T01:04:45;14.52;;;2.10;;
61638;SDS011;47544;52.484;4.658;2023-12-20T01:05:01;15.40;;;2.38;;
61638;SDS011;47544;52.484;4.658;2023-12-20T01:05:11;12.73;;;1.92;;
61638;SDS011;47544;52.484;4.658;2023-12-20T01:05:23;8.70;;;1.42;;
61638;SDS011;47544;52.484;4.658;2023-12-20T01:05:33;10.10;;;1.67;;
61638;SDS011;47544;52.484;4.658;2023-12-20T01:05:44;13.60;;;2.27;;
61638;SDS011;47544;52.484;4.658;2023-12-20T01:05:55;16.70;;;2.50;;
61638;SDS011;47544;52.484;4.658;2023-12-20T01:06:06;13.43;;;2.33;;
61638;SDS011;47544;52.484;4.658;2023-12-20T01:06:17;10.60;;;2.13;;
61638;SDS011;47544;52.484;4.658;2023-12-20T01:06:29;9.27;;;2.13;;
61638;SDS011;47544;52.484;4.658;2023-12-20T01:06:40;9.45;;;2.17;;
61638;SDS011;47544;52.484;4.658;2023-12-20T01:06:52;8.35;;;2.05;;